Time;durP1;ratioP1;P1;durP2;ratioP2;P2;SDS_P1;SDS_P2;PMS_P1;PMS_P2;Temp;Humidity;BMP_temperature;BMP_pressure;BME280_temperature;BME280_humidity;BME280_pressure;Samples;Min_cycle;Max_cycle;Signal;HPM_P1;HPM_P2
2023/06/15 00:01:50;;;;;;;6.25;3.85;;;;;;;;;;4994456;28;20026;-72
2023/06/15 00:04:17;;;;;;;7.25;3.42;;;;;;;;;;4995205;28;20034;-71
2023/06/15 00:06:44;;;;;;;5.65;3.30;;;;;;;;;;4994017;28;20041;-72
2023/06/15 00:09:09;;;;;;;5.78;3.75;;;;;;;;;;5001550;28;20538;-72
2023/06/15 00:11:35;;;;;;;4.80;3.30;;;;;;;;;;4995900;28;20042;-72
2023/06/15 00:14:01;;;;;;;7.13;3.83;;;;;;;;;;4996498;28;20110;-72
2023/06/15 00:16:31;;;;;;;6.07;3.80;;;;;;;;;;4993943;28;20041;-71
2023/06/15 00:18:58;;;;;;;6.90;3.80;;;;;;;;;;4996175;28;20073;-72
2023/06/15 00:21:24;;;;;;;5.40;4.07;;;;;;;;;;4988441;28;20019;-72
2023/06/15 00:23:50;;;;;;;6.55;3.28;;;;;;;;;;4978258;28;20560;-72
2023/06/15 00:26:16;;;;;;;7.95;4.03;;;;;;;;;;4994021;28;20109;-71
2023/06/15 00:28:45;;;;;;;6.18;3.67;;;;;;;;;;4992632;28;20030;-72
2023/06/15 00:31:10;;;;;;;5.45;3.92;;;;;;;;;;4992663;28;20053;-72
2023/06/15 00:33:36;;;;;;;5.88;3.72;;;;;;;;;;4993313;28;20109;-72
2023/06/15 00:36:05;;;;;;;6.05;3.97;;;;;;;;;;4993632;28;20029;-72
2023/06/15 00:38:32;;;;;;;7.20;3.65;;;;;;;;;;4992097;28;20042;-71
2023/06/15 00:40:59;;;;;;;8.93;4.30;;;;;;;;;;4993529;28;20038;-72
2023/06/15 00:43:25;;;;;;;5.88;3.80;;;;;;;;;;4992572;28;20103;-72
2023/06/15 00:45:51;;;;;;;5.80;4.13;;;;;;;;;;4992019;28;20042;-71
2023/06/15 00:48:17;;;;;;;8.43;4.60;;;;;;;;;;4993562;28;20030;-71
2023/06/15 00:50:43;;;;;;;6.68;3.45;;;;;;;;;;4992309;28;20094;-71
2023/06/15 00:53:09;;;;;;;5.95;3.70;;;;;;;;;;4992205;28;20396;-72
2023/06/15 00:55:37;;;;;;;7.55;3.85;;;;;;;;;;4991487;28;20034;-71
2023/06/15 00:58:03;;;;;;;6.15;4.00;;;;;;;;;;4992036;28;20042;-71
2023/06/15 01:00:37;;;;;;;5.70;4.13;;;;;;;;;;4992054;28;20026;-71
2023/06/15 01:03:04;;;;;;;4.85;3.90;;;;;;;;;;4993291;28;20515;-71
2023/06/15 01:05:34;;;;;;;7.30;4.00;;;;;;;;;;4992826;28;20026;-72
2023/06/15 01:08:04;;;;;;;7.82;4.00;;;;;;;;;;4991937;28;20484;-72
2023/06/15 01:10:32;;;;;;;8.60;4.88;;;;;;;;;;4991876;28;20030;-72
2023/06/15 01:13:00;;;;;;;8.77;4.72;;;;;;;;;;4993338;28;20052;-71
2023/06/15 01:15:26;;;;;;;9.75;4.57;;;;;;;;;;4991936;28;20121;-72
2023/06/15 01:17:57;;;;;;;6.55;4.50;;;;;;;;;;4991543;28;20076;-71
2023/06/15 01:20:48;;;;;;;8.45;4.57;;;;;;;;;;4991651;28;20038;-71
2023/06/15 01:23:40;;;;;;;8.63;4.70;;;;;;;;;;4991787;28;20480;-72
2023/06/15 01:26:09;;;;;;;6.45;4.20;;;;;;;;;;4992683;28;20034;-72
2023/06/15 01:28:41;;;;;;;8.20;4.72;;;;;;;;;;4991378;28;20030;-71
2023/06/15 01:31:09;;;;;;;8.03;4.63;;;;;;;;;;4991911;28;20035;-72
2023/06/15 01:33:55;;;;;;;6.22;4.53;;;;;;;;;;4991429;28;20295;-72
2023/06/15 01:36:21;;;;;;;9.32;4.70;;;;;;;;;;4991849;28;20096;-72
2023/06/15 01:38:53;;;;;;;8.27;4.68;;;;;;;;;;4992689;28;20230;-72
2023/06/15 01:41:22;;;;;;;9.20;5.00;;;;;;;;;;4991403;28;20034;-71
2023/06/15 01:43:48;;;;;;;7.43;4.90;;;;;;;;;;4990822;28;20037;-73
2023/06/15 01:46:15;;;;;;;8.43;5.45;;;;;;;;;;4992681;28;20034;-72
2023/06/15 01:48:41;;;;;;;10.25;6.05;;;;;;;;;;4991257;28;20113;-71
2023/06/15 01:51:06;;;;;;;8.65;6.72;;;;;;;;;;4992579;28;20125;-72
2023/06/15 01:53:32;;;;;;;9.20;6.63;;;;;;;;;;4990688;28;20049;-72
2023/06/15 01:55:59;;;;;;;10.15;7.07;;;;;;;;;;4992654;28;20045;-71
2023/06/15 01:58:26;;;;;;;16.60;7.13;;;;;;;;;;4996928;28;20057;-72
2023/06/15 02:00:53;;;;;;;11.57;6.97;;;;;;;;;;4994044;28;20032;-72
2023/06/15 02:03:18;;;;;;;7.45;6.60;;;;;;;;;;4991046;28;20023;-71
2023/06/15 02:05:44;;;;;;;8.00;7.18;;;;;;;;;;4992006;28;20034;-71
2023/06/15 02:08:11;;;;;;;9.18;7.15;;;;;;;;;;4989604;28;20039;-71
2023/06/15 02:10:38;;;;;;;13.48;7.47;;;;;;;;;;4993360;28;20180;-72
2023/06/15 02:13:12;;;;;;;11.00;6.93;;;;;;;;;;4990791;28;20022;-72
2023/06/15 02:15:39;;;;;;;9.88;6.78;;;;;;;;;;4990374;28;20045;-72
2023/06/15 02:18:11;;;;;;;13.60;6.78;;;;;;;;;;4990966;28;20053;-73
2023/06/15 02:20:40;;;;;;;10.02;6.47;;;;;;;;;;4992115;28;20049;-73
2023/06/15 02:23:05;;;;;;;8.73;5.90;;;;;;;;;;4992432;28;20038;-71
2023/06/15 02:25:31;;;;;;;9.00;5.93;;;;;;;;;;4990456;28;20057;-72
2023/06/15 02:27:57;;;;;;;11.52;6.70;;;;;;;;;;4993222;28;20034;-72
2023/06/15 02:30:25;;;;;;;12.25;6.10;;;;;;;;;;4997274;28;20056;-72
2023/06/15 02:32:52;;;;;;;19.15;7.35;;;;;;;;;;4996955;28;20096;-73
2023/06/15 02:35:19;;;;;;;8.57;5.75;;;;;;;;;;4994589;28;20038;-72
2023/06/15 02:37:45;;;;;;;14.07;6.30;;;;;;;;;;4994437;28;20109;-72
2023/06/15 02:40:12;;;;;;;9.48;6.32;;;;;;;;;;4994818;28;20034;-71
2023/06/15 02:42:38;;;;;;;10.15;5.60;;;;;;;;;;4994671;28;20030;-71
2023/06/15 02:45:06;;;;;;;12.52;5.43;;;;;;;;;;4994080;28;20442;-71
2023/06/15 02:47:35;;;;;;;9.95;6.18;;;;;;;;;;4993395;28;20468;-71
2023/06/15 02:50:05;;;;;;;6.47;5.13;;;;;;;;;;4994145;28;20384;-71
2023/06/15 02:52:36;;;;;;;7.43;5.00;;;;;;;;;;4994445;28;20526;-73
2023/06/15 02:55:06;;;;;;;7.43;5.05;;;;;;;;;;5001343;28;20044;-72
2023/06/15 02:57:32;;;;;;;10.95;5.97;;;;;;;;;;5014529;28;20440;-72
2023/06/15 03:00:13;;;;;;;8.80;5.72;;;;;;;;;;5013846;28;20030;-72
2023/06/15 03:02:47;;;;;;;10.52;6.03;;;;;;;;;;5015110;28;20037;-71
2023/06/15 03:05:13;;;;;;;7.90;5.53;;;;;;;;;;5013266;28;20243;-72
2023/06/15 03:07:47;;;;;;;10.15;5.18;;;;;;;;;;5013924;28;20053;-73
2023/06/15 03:10:45;;;;;;;12.27;6.25;;;;;;;;;;5008359;28;20488;-73
2023/06/15 03:13:12;;;;;;;9.38;6.25;;;;;;;;;;5013530;28;20124;-72
2023/06/15 03:15:38;;;;;;;14.45;7.88;;;;;;;;;;5012824;28;20121;-72
2023/06/15 03:18:05;;;;;;;7.82;6.72;;;;;;;;;;5013705;28;20068;-72
2023/06/15 03:20:32;;;;;;;8.90;6.82;;;;;;;;;;5014849;28;20076;-73
2023/06/15 03:23:00;;;;;;;11.75;8.30;;;;;;;;;;5013475;28;20570;-73
2023/06/15 03:25:26;;;;;;;11.18;7.50;;;;;;;;;;5014903;28;20112;-72
2023/06/15 03:27:59;;;;;;;8.45;7.50;;;;;;;;;;5018700;28;20037;-71
2023/06/15 03:30:29;;;;;;;12.25;8.00;;;;;;;;;;4998886;28;20038;-72
2023/06/15 03:32:55;;;;;;;10.88;7.35;;;;;;;;;;4993792;28;20081;-72
2023/06/15 03:35:22;;;;;;;8.60;6.97;;;;;;;;;;4975855;28;20041;-72
2023/06/15 03:37:48;;;;;;;8.65;6.57;;;;;;;;;;4993479;28;20046;-73
2023/06/15 03:40:14;;;;;;;8.82;6.40;;;;;;;;;;4990290;28;20042;-72
2023/06/15 03:42:41;;;;;;;9.50;6.82;;;;;;;;;;4994113;28;20049;-71
2023/06/15 03:45:07;;;;;;;10.35;6.68;;;;;;;;;;4993647;28;20033;-72
2023/06/15 03:47:37;;;;;;;11.68;6.53;;;;;;;;;;4995081;28;20108;-71
2023/06/15 03:50:02;;;;;;;10.82;6.13;;;;;;;;;;4976790;28;20708;-72
2023/06/15 03:52:32;;;;;;;7.85;6.03;;;;;;;;;;4994752;28;20038;-72
2023/06/15 03:54:59;;;;;;;16.30;6.68;;;;;;;;;;4993089;28;20060;-71
2023/06/15 03:57:25;;;;;;;10.35;6.63;;;;;;;;;;4977015;28;20113;-71
2023/06/15 03:59:52;;;;;;;9.40;6.78;;;;;;;;;;4993248;28;20038;-72
2023/06/15 04:02:19;;;;;;;6.78;5.78;;;;;;;;;;4977025;28;20035;-71
2023/06/15 04:04:45;;;;;;;7.35;6.00;;;;;;;;;;4994211;28;20389;-72
2023/06/15 04:07:11;;;;;;;10.23;5.68;;;;;;;;;;4993327;28;20023;-72
2023/06/15 04:09:39;;;;;;;6.28;5.40;;;;;;;;;;4991885;28;20036;-71
2023/06/15 04:12:05;;;;;;;12.02;5.90;;;;;;;;;;4999498;28;20057;-73
2023/06/15 04:14:33;;;;;;;9.40;5.78;;;;;;;;;;4998029;28;20066;-71
2023/06/15 04:17:00;;;;;;;9.52;5.45;;;;;;;;;;4993724;28;20034;-71
2023/06/15 04:19:28;;;;;;;9.93;5.05;;;;;;;;;;4996214;28;20030;-72
2023/06/15 04:21:55;;;;;;;9.98;5.60;;;;;;;;;;4997048;28;20037;-71
2023/06/15 04:24:21;;;;;;;7.97;5.22;;;;;;;;;;4996485;28;20089;-70
2023/06/15 04:26:47;;;;;;;7.68;5.75;;;;;;;;;;4993200;28;20014;-71
2023/06/15 04:29:18;;;;;;;11.13;5.93;;;;;;;;;;4988915;28;20034;-71
2023/06/15 04:31:46;;;;;;;7.57;5.43;;;;;;;;;;4994203;28;20084;-71
2023/06/15 04:34:15;;;;;;;7.75;5.90;;;;;;;;;;4991897;28;20447;-71
2023/06/15 04:36:44;;;;;;;11.00;6.13;;;;;;;;;;4993236;28;20101;-71
2023/06/15 04:39:13;;;;;;;11.35;6.03;;;;;;;;;;4992493;28;20030;-71
2023/06/15 04:41:39;;;;;;;13.15;6.82;;;;;;;;;;4992700;28;20415;-72
2023/06/15 04:44:06;;;;;;;11.85;5.78;;;;;;;;;;4992865;28;20061;-71
2023/06/15 04:46:32;;;;;;;11.15;5.35;;;;;;;;;;4992375;28;20106;-71
2023/06/15 04:49:00;;;;;;;9.73;5.53;;;;;;;;;;4988522;28;20022;-71
2023/06/15 04:51:26;;;;;;;9.43;5.32;;;;;;;;;;4990323;28;20093;-70
2023/06/15 04:53:52;;;;;;;8.20;5.68;;;;;;;;;;4993355;28;20030;-72
2023/06/15 04:56:17;;;;;;;11.90;5.63;;;;;;;;;;4992320;28;20496;-73
2023/06/15 04:58:44;;;;;;;9.52;5.15;;;;;;;;;;4992098;28;20033;-72
2023/06/15 05:01:10;;;;;;;15.40;6.28;;;;;;;;;;4995303;28;20034;-72
2023/06/15 05:03:36;;;;;;;12.30;5.30;;;;;;;;;;4976347;28;20103;-71
2023/06/15 05:06:02;;;;;;;10.38;5.50;;;;;;;;;;4990217;28;20551;-72
2023/06/15 05:08:31;;;;;;;11.07;5.80;;;;;;;;;;4990812;28;20468;-72
2023/06/15 05:10:59;;;;;;;10.07;5.40;;;;;;;;;;4990449;28;20040;-72
2023/06/15 05:13:26;;;;;;;7.93;4.28;;;;;;;;;;4990772;28;20073;-71
2023/06/15 05:15:53;;;;;;;6.85;4.35;;;;;;;;;;4974662;28;20034;-71
2023/06/15 05:18:20;;;;;;;7.35;5.05;;;;;;;;;;4991217;28;20030;-71
2023/06/15 05:20:47;;;;;;;11.88;5.15;;;;;;;;;;4990778;28;20404;-73
2023/06/15 05:23:13;;;;;;;7.13;4.43;;;;;;;;;;4990942;28;20030;-71
2023/06/15 05:25:40;;;;;;;9.15;4.40;;;;;;;;;;4990537;28;20538;-71
2023/06/15 05:28:06;;;;;;;8.50;4.57;;;;;;;;;;4982993;28;20026;-71
2023/06/15 05:30:33;;;;;;;6.53;4.07;;;;;;;;;;4990970;28;20084;-71
2023/06/15 05:33:00;;;;;;;12.98;5.03;;;;;;;;;;4990929;28;20121;-70
2023/06/15 05:35:26;;;;;;;10.07;6.10;;;;;;;;;;4974527;28;20121;-70
2023/06/15 05:37:52;;;;;;;10.75;5.22;;;;;;;;;;4990729;28;20038;-71
2023/06/15 05:40:19;;;;;;;10.70;4.82;;;;;;;;;;4993443;28;20036;-71
2023/06/15 05:42:45;;;;;;;10.88;4.40;;;;;;;;;;4986703;28;20146;-71
2023/06/15 05:45:10;;;;;;;7.45;4.30;;;;;;;;;;4987266;28;20567;-71
2023/06/15 05:47:36;;;;;;;8.00;4.40;;;;;;;;;;4987226;28;20057;-71
2023/06/15 05:50:04;;;;;;;11.27;4.63;;;;;;;;;;4989699;28;20034;-72
2023/06/15 05:52:31;;;;;;;9.73;4.07;;;;;;;;;;4989647;28;20129;-70
2023/06/15 05:54:56;;;;;;;6.97;3.90;;;;;;;;;;4990573;28;20132;-70
2023/06/15 05:57:22;;;;;;;8.75;4.30;;;;;;;;;;4991080;28;20023;-71
2023/06/15 05:59:48;;;;;;;7.60;4.10;;;;;;;;;;4991209;28;20129;-71
2023/06/15 06:02:14;;;;;;;7.63;4.43;;;;;;;;;;4994556;28;20100;-70
2023/06/15 06:04:41;;;;;;;6.32;3.90;;;;;;;;;;4997437;28;20046;-70
2023/06/15 06:07:07;;;;;;;10.55;4.25;;;;;;;;;;4997334;28;20019;-70
2023/06/15 06:09:34;;;;;;;6.72;4.05;;;;;;;;;;4995969;28;20129;-70
2023/06/15 06:12:01;;;;;;;9.02;4.43;;;;;;;;;;4996074;28;20026;-71
2023/06/15 06:14:28;;;;;;;5.22;3.95;;;;;;;;;;4996096;28;20034;-70
2023/06/15 06:16:54;;;;;;;5.95;4.30;;;;;;;;;;4996550;28;20117;-70
2023/06/15 06:19:21;;;;;;;7.03;4.18;;;;;;;;;;4995029;28;20034;-72
2023/06/15 06:21:48;;;;;;;6.90;3.60;;;;;;;;;;4989869;28;20042;-70
2023/06/15 06:24:16;;;;;;;8.63;3.72;;;;;;;;;;4996223;28;20030;-71
2023/06/15 06:26:44;;;;;;;8.45;3.78;;;;;;;;;;4995984;28;20022;-71
2023/06/15 06:29:10;;;;;;;6.05;3.60;;;;;;;;;;4996814;28;20121;-70
2023/06/15 06:31:36;;;;;;;9.20;3.75;;;;;;;;;;4997798;28;20033;-72
2023/06/15 06:34:02;;;;;;;5.57;3.30;;;;;;;;;;4996331;28;20042;-71
2023/06/15 06:36:28;;;;;;;4.82;3.00;;;;;;;;;;4998121;28;20151;-71
2023/06/15 06:38:54;;;;;;;7.32;4.13;;;;;;;;;;4997426;28;20431;-71
2023/06/15 06:41:20;;;;;;;5.63;3.70;;;;;;;;;;4997920;28;20062;-71
2023/06/15 06:43:45;;;;;;;4.40;2.75;;;;;;;;;;4998217;28;20496;-71
2023/06/15 06:46:13;;;;;;;5.82;3.38;;;;;;;;;;4997979;28;20058;-72
2023/06/15 06:48:40;;;;;;;4.40;3.20;;;;;;;;;;4998528;28;20070;-73
2023/06/15 06:51:06;;;;;;;3.47;2.83;;;;;;;;;;4998006;28;20070;-73
2023/06/15 06:53:32;;;;;;;6.70;3.45;;;;;;;;;;4997839;28;20040;-73
2023/06/15 06:55:58;;;;;;;7.88;3.50;;;;;;;;;;4980251;28;20052;-73
2023/06/15 06:58:24;;;;;;;3.88;3.20;;;;;;;;;;4996818;28;20084;-72
2023/06/15 07:00:50;;;;;;;6.82;2.83;;;;;;;;;;4996681;28;20028;-73
2023/06/15 07:03:16;;;;;;;10.32;3.15;;;;;;;;;;4997187;28;20404;-72
2023/06/15 07:05:41;;;;;;;3.70;2.63;;;;;;;;;;5000547;28;20027;-71
2023/06/15 07:08:08;;;;;;;5.40;3.03;;;;;;;;;;5001178;28;20308;-74
2023/06/15 07:10:34;;;;;;;4.10;2.75;;;;;;;;;;4998226;28;20037;-71
2023/06/15 07:13:00;;;;;;;5.60;2.60;;;;;;;;;;4997518;28;20510;-72
2023/06/15 07:15:27;;;;;;;6.70;3.20;;;;;;;;;;4993886;28;20171;-72
2023/06/15 07:17:53;;;;;;;6.78;2.80;;;;;;;;;;4993441;28;20134;-71
2023/06/15 07:20:19;;;;;;;3.83;2.92;;;;;;;;;;4993537;28;20033;-72
2023/06/15 07:22:45;;;;;;;7.65;2.72;;;;;;;;;;4994061;28;20042;-72
2023/06/15 07:25:11;;;;;;;4.45;2.60;;;;;;;;;;4988835;28;20026;-70
2023/06/15 07:27:37;;;;;;;4.00;3.22;;;;;;;;;;4994042;28;20386;-71
2023/06/15 07:30:03;;;;;;;4.22;2.95;;;;;;;;;;4976034;28;20030;-72
2023/06/15 07:32:29;;;;;;;7.28;3.05;;;;;;;;;;4993980;28;20125;-72
2023/06/15 07:34:54;;;;;;;5.60;2.85;;;;;;;;;;4992260;28;20132;-72
2023/06/15 07:37:20;;;;;;;4.65;3.08;;;;;;;;;;4993027;28;20048;-72
2023/06/15 07:39:46;;;;;;;7.63;3.20;;;;;;;;;;4993724;28;20565;-71
2023/06/15 07:42:12;;;;;;;8.77;3.20;;;;;;;;;;5000422;28;20030;-71
2023/06/15 07:44:37;;;;;;;13.13;3.55;;;;;;;;;;4992554;28;20062;-71
2023/06/15 07:47:04;;;;;;;6.50;2.80;;;;;;;;;;4993888;28;20030;-71
2023/06/15 07:49:29;;;;;;;3.95;3.03;;;;;;;;;;4989885;28;20031;-71
2023/06/15 07:51:55;;;;;;;7.93;3.25;;;;;;;;;;4993472;28;20035;-71
2023/06/15 07:54:20;;;;;;;4.18;3.03;;;;;;;;;;4993858;28;20387;-71
2023/06/15 07:56:47;;;;;;;4.80;3.55;;;;;;;;;;4993669;28;20049;-72
2023/06/15 07:59:14;;;;;;;12.52;3.80;;;;;;;;;;4992017;28;20026;-73
2023/06/15 08:01:39;;;;;;;5.82;2.80;;;;;;;;;;4992092;28;20038;-71
2023/06/15 08:04:07;;;;;;;7.10;3.00;;;;;;;;;;4993830;28;20403;-71
2023/06/15 08:06:34;;;;;;;8.50;4.03;;;;;;;;;;4991653;28;20128;-70
2023/06/15 08:09:00;;;;;;;3.33;3.00;;;;;;;;;;4993386;28;20076;-71
2023/06/15 08:11:26;;;;;;;5.05;3.10;;;;;;;;;;4993560;28;20060;-74
2023/06/15 08:13:51;;;;;;;6.70;2.72;;;;;;;;;;4993703;28;20405;-72
2023/06/15 08:16:17;;;;;;;5.68;3.13;;;;;;;;;;4993733;28;20408;-72
2023/06/15 08:18:43;;;;;;;4.80;2.90;;;;;;;;;;4992596;28;20421;-72
2023/06/15 08:21:09;;;;;;;4.55;2.85;;;;;;;;;;4990369;28;20104;-72
2023/06/15 08:23:36;;;;;;;4.60;3.15;;;;;;;;;;4991376;28;20054;-71
2023/06/15 08:26:02;;;;;;;4.05;3.20;;;;;;;;;;4992510;28;20120;-75
2023/06/15 08:28:29;;;;;;;10.30;3.30;;;;;;;;;;4987308;28;20030;-72
2023/06/15 08:30:54;;;;;;;6.82;3.83;;;;;;;;;;4991830;28;20041;-71
2023/06/15 08:33:21;;;;;;;4.32;2.80;;;;;;;;;;4992952;28;20022;-71
2023/06/15 08:35:48;;;;;;;3.90;2.85;;;;;;;;;;4993111;28;20042;-72
2023/06/15 08:38:13;;;;;;;3.90;3.00;;;;;;;;;;4993034;28;20079;-72
2023/06/15 08:40:39;;;;;;;4.97;2.83;;;;;;;;;;4991998;28;20042;-74
2023/06/15 08:43:07;;;;;;;6.43;2.90;;;;;;;;;;4992350;28;20388;-72
2023/06/15 08:45:39;;;;;;;4.40;3.13;;;;;;;;;;4993266;28;20464;-72
2023/06/15 08:48:07;;;;;;;4.60;2.60;;;;;;;;;;4984718;28;20038;-70
2023/06/15 08:50:36;;;;;;;3.55;2.58;;;;;;;;;;4993203;28;20365;-75
2023/06/15 08:53:04;;;;;;;6.38;3.45;;;;;;;;;;4991209;28;20503;-73
2023/06/15 08:55:31;;;;;;;6.35;2.80;;;;;;;;;;4992724;28;20065;-75
2023/06/15 08:57:57;;;;;;;6.57;2.80;;;;;;;;;;4991509;28;20044;-74
2023/06/15 09:00:22;;;;;;;4.13;2.83;;;;;;;;;;4990016;28;20042;-74
2023/06/15 09:02:53;;;;;;;4.70;2.53;;;;;;;;;;4986821;28;20072;-75
2023/06/15 09:05:18;;;;;;;5.13;2.80;;;;;;;;;;4991158;28;20524;-74
2023/06/15 09:07:45;;;;;;;4.75;2.83;;;;;;;;;;4992249;28;20029;-73
2023/06/15 09:10:21;;;;;;;5.93;2.90;;;;;;;;;;4993293;28;20038;-73
2023/06/15 09:12:52;;;;;;;6.10;3.00;;;;;;;;;;4992508;28;20042;-74
2023/06/15 09:15:28;;;;;;;5.70;2.90;;;;;;;;;;4992617;28;20109;-74
2023/06/15 09:17:56;;;;;;;5.15;2.85;;;;;;;;;;4993280;28;20080;-74
2023/06/15 09:20:25;;;;;;;4.60;3.05;;;;;;;;;;4992884;28;20064;-73
2023/06/15 09:22:51;;;;;;;3.72;2.80;;;;;;;;;;4992703;28;20122;-74
2023/06/15 09:25:20;;;;;;;4.68;2.75;;;;;;;;;;4988631;28;20030;-73
2023/06/15 09:27:58;;;;;;;4.15;2.80;;;;;;;;;;4991988;28;20034;-75
2023/06/15 09:30:36;;;;;;;4.75;3.15;;;;;;;;;;4990836;28;20496;-75
2023/06/15 09:33:16;;;;;;;5.25;2.70;;;;;;;;;;4992430;28;20056;-76
2023/06/15 09:36:04;;;;;;;3.97;2.50;;;;;;;;;;4990151;28;20051;-74
2023/06/15 09:38:45;;;;;;;3.67;2.63;;;;;;;;;;4989474;28;20121;-76
2023/06/15 09:41:28;;;;;;;5.95;3.13;;;;;;;;;;4992666;28;20038;-74
2023/06/15 09:43:53;;;;;;;6.78;3.35;;;;;;;;;;4999302;28;20040;-75
2023/06/15 09:46:20;;;;;;;5.20;2.85;;;;;;;;;;4985875;28;20034;-76
2023/06/15 09:48:49;;;;;;;4.15;2.92;;;;;;;;;;4988571;28;20026;-76
2023/06/15 09:51:18;;;;;;;7.70;3.22;;;;;;;;;;4990819;28;20038;-78
2023/06/15 09:53:45;;;;;;;3.85;2.97;;;;;;;;;;4973567;28;20084;-75
2023/06/15 09:56:11;;;;;;;3.40;2.72;;;;;;;;;;4991238;28;20555;-75
2023/06/15 09:58:37;;;;;;;7.20;3.20;;;;;;;;;;4992530;28;20022;-76
2023/06/15 10:01:04;;;;;;;5.68;2.60;;;;;;;;;;4992636;28;20076;-77
2023/06/15 10:03:32;;;;;;;6.15;2.67;;;;;;;;;;4992247;28;20030;-76
2023/06/15 10:06:15;;;;;;;6.43;3.00;;;;;;;;;;4988144;28;20508;-76
2023/06/15 10:08:44;;;;;;;4.68;3.08;;;;;;;;;;4990657;28;20041;-75
2023/06/15 10:11:12;;;;;;;3.55;2.80;;;;;;;;;;4992156;28;20038;-74
2023/06/15 10:13:51;;;;;;;4.63;3.10;;;;;;;;;;4990114;28;20046;-75
2023/06/15 10:16:18;;;;;;;5.07;3.20;;;;;;;;;;4985625;28;20043;-75
2023/06/15 10:18:46;;;;;;;8.45;3.42;;;;;;;;;;4989461;28;20554;-75
2023/06/15 10:21:18;;;;;;;6.03;3.75;;;;;;;;;;4993583;28;20451;-78
2023/06/15 10:23:48;;;;;;;5.53;3.10;;;;;;;;;;4993110;28;20046;-76
2023/06/15 10:26:14;;;;;;;5.43;2.97;;;;;;;;;;4990768;28;20084;-76
2023/06/15 10:28:46;;;;;;;3.67;2.90;;;;;;;;;;4989926;28;20030;-76
2023/06/15 10:31:53;;;;;;;5.82;2.92;;;;;;;;;;4991650;28;20378;-76
2023/06/15 10:34:39;;;;;;;5.78;2.92;;;;;;;;;;4950069;28;20217;-75
2023/06/15 10:37:26;;;;;;;4.57;2.85;;;;;;;;;;4946915;29;20516;-74
2023/06/15 10:39:56;;;;;;;4.05;2.60;;;;;;;;;;4973109;28;20054;-74
2023/06/15 10:42:22;;;;;;;4.35;2.65;;;;;;;;;;4989467;28;20034;-77
2023/06/15 10:44:49;;;;;;;5.00;2.53;;;;;;;;;;4989007;28;20117;-76
2023/06/15 10:47:20;;;;;;;3.50;2.97;;;;;;;;;;4988406;28;20677;-75
2023/06/15 10:49:53;;;;;;;4.40;2.60;;;;;;;;;;4993162;28;20121;-74
2023/06/15 10:52:20;;;;;;;4.28;2.83;;;;;;;;;;4991981;28;20031;-74
2023/06/15 10:54:46;;;;;;;3.75;2.83;;;;;;;;;;4991770;28;20062;-77
2023/06/15 10:57:17;;;;;;;6.40;3.45;;;;;;;;;;4998248;28;20492;-74
2023/06/15 10:59:53;;;;;;;5.63;3.25;;;;;;;;;;4996608;28;20038;-75
2023/06/15 11:02:28;;;;;;;3.90;2.90;;;;;;;;;;4993444;28;20045;-77
2023/06/15 11:05:10;;;;;;;7.07;2.75;;;;;;;;;;4992783;28;20066;-75
2023/06/15 11:07:43;;;;;;;5.03;2.97;;;;;;;;;;4993313;28;20026;-75
2023/06/15 11:10:13;;;;;;;7.43;2.80;;;;;;;;;;4992550;28;20045;-74
2023/06/15 11:12:44;;;;;;;6.80;3.17;;;;;;;;;;4991646;28;20041;-75
2023/06/15 11:15:14;;;;;;;4.38;2.67;;;;;;;;;;4993922;28;20034;-76
2023/06/15 11:17:56;;;;;;;7.45;3.10;;;;;;;;;;5001549;28;20025;-75
2023/06/15 11:20:43;;;;;;;10.05;3.17;;;;;;;;;;4992801;28;20042;-76
2023/06/15 11:23:16;;;;;;;6.50;3.10;;;;;;;;;;4993885;28;20085;-75
2023/06/15 11:25:54;;;;;;;7.53;3.53;;;;;;;;;;4991007;28;20034;-77
2023/06/15 11:28:24;;;;;;;6.13;2.92;;;;;;;;;;4993158;28;20045;-74
2023/06/15 11:30:54;;;;;;;5.55;2.97;;;;;;;;;;4994324;28;20042;-73
2023/06/15 11:33:27;;;;;;;4.38;2.60;;;;;;;;;;4994199;28;20042;-75
2023/06/15 11:35:53;;;;;;;3.53;2.78;;;;;;;;;;4992877;28;20042;-75
2023/06/15 11:38:26;;;;;;;3.85;2.97;;;;;;;;;;4994576;28;20065;-73
2023/06/15 11:41:11;;;;;;;4.78;2.67;;;;;;;;;;4993790;28;20069;-74
2023/06/15 11:43:40;;;;;;;4.10;2.65;;;;;;;;;;4993778;28;20027;-72
2023/06/15 11:46:11;;;;;;;4.47;2.88;;;;;;;;;;4993223;28;20129;-75
2023/06/15 11:48:39;;;;;;;4.25;3.17;;;;;;;;;;4994260;28;20116;-74
2023/06/15 11:51:12;;;;;;;6.68;2.97;;;;;;;;;;4976342;28;20393;-76
2023/06/15 11:53:40;;;;;;;6.15;2.83;;;;;;;;;;4993949;28;20512;-75
2023/06/15 11:56:12;;;;;;;5.93;2.90;;;;;;;;;;4994142;28;20465;-76
2023/06/15 11:58:40;;;;;;;4.35;3.17;;;;;;;;;;4994410;28;20065;-75
2023/06/15 12:01:06;;;;;;;4.10;3.00;;;;;;;;;;4992009;28;20033;-75
2023/06/15 12:03:37;;;;;;;8.43;3.70;;;;;;;;;;4994103;28;20034;-73
2023/06/15 12:06:04;;;;;;;5.47;3.10;;;;;;;;;;4995782;28;20047;-75
2023/06/15 12:08:34;;;;;;;5.05;2.78;;;;;;;;;;4992898;28;20038;-76
2023/06/15 12:11:01;;;;;;;9.57;3.47;;;;;;;;;;4993877;28;20077;-74
2023/06/15 12:13:26;;;;;;;6.30;3.50;;;;;;;;;;4993808;28;20042;-74
2023/06/15 12:15:53;;;;;;;4.35;2.70;;;;;;;;;;4993541;28;20040;-75
2023/06/15 12:18:19;;;;;;;5.22;2.90;;;;;;;;;;4994038;28;20061;-75
2023/06/15 12:20:46;;;;;;;3.28;2.67;;;;;;;;;;4976384;28;20532;-76
2023/06/15 12:23:26;;;;;;;3.72;3.20;;;;;;;;;;4993582;28;20306;-75
2023/06/15 12:25:56;;;;;;;3.72;3.00;;;;;;;;;;4992386;28;20092;-76
2023/06/15 12:28:24;;;;;;;6.32;3.03;;;;;;;;;;4993504;28;20034;-77
2023/06/15 12:30:51;;;;;;;6.68;3.33;;;;;;;;;;4993711;28;20030;-74
2023/06/15 12:33:50;;;;;;;5.78;3.33;;;;;;;;;;4991326;28;20508;-74
2023/06/15 12:36:17;;;;;;;8.07;3.45;;;;;;;;;;4985628;28;20055;-75
2023/06/15 12:38:48;;;;;;;8.30;3.22;;;;;;;;;;4993432;28;20077;-76
2023/06/15 12:41:15;;;;;;;4.72;3.30;;;;;;;;;;4993683;28;20038;-76
2023/06/15 12:43:42;;;;;;;5.07;3.25;;;;;;;;;;4992312;28;20121;-75
2023/06/15 12:46:09;;;;;;;5.20;3.42;;;;;;;;;;4993220;28;20057;-76
2023/06/15 12:48:34;;;;;;;4.63;3.20;;;;;;;;;;4993649;28;20027;-76
2023/06/15 12:51:03;;;;;;;8.93;3.42;;;;;;;;;;4993693;28;20046;-75
2023/06/15 12:53:29;;;;;;;5.22;2.67;;;;;;;;;;5003131;28;20132;-77
2023/06/15 12:55:55;;;;;;;6.30;3.35;;;;;;;;;;5011172;28;20117;-74
2023/06/15 12:58:21;;;;;;;5.05;3.10;;;;;;;;;;4997828;28;20026;-75
2023/06/15 13:00:47;;;;;;;7.07;2.97;;;;;;;;;;4975530;28;20034;-75
2023/06/15 13:03:13;;;;;;;4.65;3.30;;;;;;;;;;4991333;28;20026;-75
2023/06/15 13:05:42;;;;;;;3.78;3.00;;;;;;;;;;4991011;28;20129;-75
2023/06/15 13:08:09;;;;;;;6.18;3.47;;;;;;;;;;4991554;28;20032;-74
2023/06/15 13:10:36;;;;;;;6.95;3.15;;;;;;;;;;4992088;28;20121;-75
2023/06/15 13:13:01;;;;;;;4.70;3.10;;;;;;;;;;4994026;28;20388;-74
2023/06/15 13:15:28;;;;;;;8.77;3.40;;;;;;;;;;4991792;28;20046;-75
2023/06/15 13:17:55;;;;;;;5.70;3.20;;;;;;;;;;5006400;28;20021;-73
2023/06/15 13:20:21;;;;;;;5.10;3.33;;;;;;;;;;5009743;28;20274;-73
2023/06/15 13:22:50;;;;;;;8.60;3.55;;;;;;;;;;5009534;28;20038;-71
2023/06/15 13:25:18;;;;;;;3.90;3.20;;;;;;;;;;4991659;28;20034;-75
2023/06/15 13:27:44;;;;;;;3.60;2.95;;;;;;;;;;4974917;28;20393;-74
2023/06/15 13:30:13;;;;;;;10.65;3.45;;;;;;;;;;4991814;28;20110;-75
2023/06/15 13:32:42;;;;;;;7.40;3.17;;;;;;;;;;4993564;28;20481;-75
2023/06/15 13:35:10;;;;;;;4.40;3.40;;;;;;;;;;5000098;28;20041;-75
2023/06/15 13:37:38;;;;;;;6.22;3.03;;;;;;;;;;4999281;28;20066;-73
2023/06/15 13:40:06;;;;;;;6.95;2.90;;;;;;;;;;4990882;28;21293;-75
2023/06/15 13:42:40;;;;;;;6.20;3.20;;;;;;;;;;4989898;28;20042;-74
2023/06/15 13:45:12;;;;;;;6.38;3.35;;;;;;;;;;4990814;28;20477;-75
2023/06/15 13:47:42;;;;;;;10.90;3.42;;;;;;;;;;4991730;28;20033;-75
2023/06/15 13:50:11;;;;;;;7.07;3.17;;;;;;;;;;4972328;28;20041;-75
2023/06/15 13:52:37;;;;;;;7.35;3.80;;;;;;;;;;4972055;28;20520;-75
2023/06/15 13:55:04;;;;;;;6.53;3.30;;;;;;;;;;4990126;28;20117;-74
2023/06/15 13:57:29;;;;;;;6.63;3.13;;;;;;;;;;4990007;28;20038;-73
2023/06/15 13:59:56;;;;;;;4.07;3.28;;;;;;;;;;4991519;28;20026;-74
2023/06/15 14:02:22;;;;;;;3.80;3.00;;;;;;;;;;4990228;28;20392;-74
2023/06/15 14:04:49;;;;;;;5.22;2.90;;;;;;;;;;4993811;28;20034;-75
2023/06/15 14:07:15;;;;;;;5.72;2.90;;;;;;;;;;4991984;28;20547;-75
2023/06/15 14:09:43;;;;;;;5.28;3.25;;;;;;;;;;4989242;28;20049;-73
2023/06/15 14:12:11;;;;;;;4.80;3.47;;;;;;;;;;4989211;28;20069;-73
2023/06/15 14:14:37;;;;;;;9.35;3.47;;;;;;;;;;4993531;28;20080;-74
2023/06/15 14:17:04;;;;;;;7.97;3.10;;;;;;;;;;4998736;28;20469;-76
2023/06/15 14:19:30;;;;;;;3.28;2.85;;;;;;;;;;5001421;28;20034;-73
2023/06/15 14:21:56;;;;;;;4.45;3.08;;;;;;;;;;4991415;28;20038;-74
2023/06/15 14:24:23;;;;;;;5.70;3.50;;;;;;;;;;5010085;28;20033;-72
2023/06/15 14:26:49;;;;;;;6.38;3.40;;;;;;;;;;5013988;28;20073;-75
2023/06/15 14:29:15;;;;;;;5.68;3.67;;;;;;;;;;5005234;28;20073;-76
2023/06/15 14:31:49;;;;;;;4.63;3.30;;;;;;;;;;4995434;28;20037;-75
2023/06/15 14:34:19;;;;;;;6.53;3.35;;;;;;;;;;4995459;28;20484;-73
2023/06/15 14:36:48;;;;;;;5.15;3.40;;;;;;;;;;4994899;28;20026;-75
2023/06/15 14:39:16;;;;;;;4.82;3.38;;;;;;;;;;4975703;28;20440;-74
2023/06/15 14:41:43;;;;;;;6.13;3.53;;;;;;;;;;4995985;28;20101;-75
2023/06/15 14:44:11;;;;;;;8.27;4.15;;;;;;;;;;4994355;28;20058;-74
2023/06/15 14:46:42;;;;;;;6.13;3.90;;;;;;;;;;4994735;28;20030;-73
2023/06/15 14:49:09;;;;;;;6.47;4.10;;;;;;;;;;4995749;28;20042;-73